Impacts TAF Board
For situational awareness. Not to be used for flight planning purposes.
IDs:

KIAH - Houston/Bush Intl, TX, US

Issued at 0858 UTC 18 Jan 2019
Updated at 0924 UTC 18 Jan 2019
Potential Impact None Slight Moderate High
Time<<19/10Z 19/11Z 19/12Z 19/13Z 19/14Z 19/15Z 19/16Z 19/17Z 19/18Z 19/19Z 19/20Z 19/21Z 19/22Z
Type PRVL PRVL
VIS >6 >6
CIG 15 15
Cover BKN BKN
FltCat MVFR MVFR
WX VCSH VCSH
WDir 230 230
WSpd 11 11
WGst 19 19
Raw TAF
KIAH 180858Z 1809/1912 00000KT 2SM BR BKN003 BKN250
  TEMPO 1811/1813 1SM BR
  FM181600 17005KT P6SM BKN008
  FM182200 18010G18KT P6SM OVC015
  FM190800 23011G19KT P6SM VCSH BKN015


METAR Board
Radar Display
Forecast Discussion
For situational awareness. Not to be used for flight planning purposes.